createdAt,value
2022-09-25T00:00:58.879Z,23.09
2022-09-25T00:03:25.450Z,23.07
2022-09-25T00:05:51.802Z,23.06
2022-09-25T00:08:18.397Z,23.03
2022-09-25T00:10:44.827Z,23.01
2022-09-25T00:13:11.239Z,22.99
2022-09-25T00:15:38.044Z,22.96
2022-09-25T00:18:04.472Z,22.94
2022-09-25T00:20:30.892Z,22.92
2022-09-25T00:22:57.218Z,22.90
2022-09-25T00:25:23.533Z,22.90
2022-09-25T00:27:50.034Z,22.90
2022-09-25T00:30:16.526Z,22.87
2022-09-25T00:32:42.910Z,22.86
2022-09-25T00:35:09.641Z,22.83
2022-09-25T00:37:36.170Z,22.83
2022-09-25T00:40:02.863Z,22.81
2022-09-25T00:42:29.263Z,22.79
2022-09-25T00:44:55.606Z,22.77
2022-09-25T00:47:21.988Z,22.77
2022-09-25T00:49:48.364Z,22.76
2022-09-25T00:52:14.891Z,22.75
2022-09-25T00:54:41.169Z,22.75
2022-09-25T00:57:07.634Z,22.74
2022-09-25T00:59:33.966Z,22.72
2022-09-25T01:02:00.426Z,22.69
2022-09-25T01:04:27.777Z,22.68
2022-09-25T01:06:55.680Z,22.67
2022-09-25T01:09:22.136Z,22.67
2022-09-25T01:11:48.534Z,22.66
2022-09-25T01:14:16.258Z,22.63
2022-09-25T01:16:42.612Z,22.62
2022-09-25T01:19:09.065Z,22.60
2022-09-25T01:21:35.675Z,22.60
2022-09-25T01:24:02.275Z,22.58
2022-09-25T01:26:28.584Z,22.58
2022-09-25T01:28:54.955Z,22.57
2022-09-25T01:31:21.411Z,22.56
2022-09-25T01:33:47.699Z,22.54
2022-09-25T01:36:14.029Z,22.54
2022-09-25T01:38:40.396Z,22.54
2022-09-25T01:41:06.766Z,22.53
2022-09-25T01:43:33.077Z,22.52
2022-09-25T01:45:59.543Z,22.49
2022-09-25T01:48:25.953Z,22.50
2022-09-25T01:50:52.383Z,22.47
2022-09-25T01:53:19.026Z,22.47
2022-09-25T01:55:45.377Z,22.47
2022-09-25T01:58:11.966Z,22.46
2022-09-25T02:00:38.418Z,22.45
2022-09-25T02:03:04.901Z,22.44
2022-09-25T02:05:31.174Z,22.42
2022-09-25T02:07:57.731Z,22.40
2022-09-25T02:10:24.240Z,22.40
2022-09-25T02:12:50.633Z,22.40
2022-09-25T02:15:17.012Z,22.37
2022-09-25T02:17:46.362Z,22.39
2022-09-25T02:20:12.680Z,22.35
2022-09-25T02:22:39.303Z,22.35
2022-09-25T02:25:05.555Z,22.33
2022-09-25T02:27:32.279Z,22.33
2022-09-25T02:29:58.608Z,22.32
2022-09-25T02:32:25.070Z,22.31
2022-09-25T02:34:51.514Z,22.30
2022-09-25T02:37:18.163Z,22.30
2022-09-25T02:39:44.527Z,22.28
2022-09-25T02:42:10.821Z,22.27
2022-09-25T02:44:37.166Z,22.26
2022-09-25T02:47:03.478Z,22.25
2022-09-25T02:49:29.868Z,22.25
2022-09-25T02:51:56.369Z,22.24
2022-09-25T02:54:23.420Z,22.24
2022-09-25T02:56:49.774Z,22.22
2022-09-25T02:59:16.056Z,22.24
2022-09-25T03:01:42.500Z,22.22
2022-09-25T03:04:10.433Z,22.21
2022-09-25T03:06:37.478Z,22.20
2022-09-25T03:09:03.925Z,22.21
2022-09-25T03:11:30.273Z,22.20
2022-09-25T03:13:56.557Z,22.18
2022-09-25T03:16:23.093Z,22.17
2022-09-25T03:18:49.549Z,22.15
2022-09-25T03:21:15.914Z,22.15
2022-09-25T03:23:42.421Z,22.15
2022-09-25T03:26:08.766Z,22.15
2022-09-25T03:28:35.388Z,22.14
2022-09-25T03:31:01.720Z,22.12
2022-09-25T03:33:28.157Z,22.12
2022-09-25T03:35:54.461Z,22.12
2022-09-25T03:38:20.705Z,22.11
2022-09-25T03:40:47.025Z,22.10
2022-09-25T03:45:38.989Z,22.09
2022-09-25T03:48:05.448Z,22.08
2022-09-25T03:50:31.780Z,22.07
2022-09-25T03:52:58.130Z,22.07
2022-09-25T03:55:27.602Z,22.07
2022-09-25T03:57:54.975Z,22.06
2022-09-25T04:00:21.373Z,22.03
2022-09-25T04:02:47.797Z,22.04
2022-09-25T04:05:14.299Z,22.03
2022-09-25T04:07:40.618Z,22.01
2022-09-25T04:10:06.841Z,22.01
2022-09-25T04:12:33.227Z,22.00
2022-09-25T04:15:01.646Z,22.00
2022-09-25T04:17:28.455Z,21.99
2022-09-25T04:19:54.765Z,21.98
2022-09-25T04:22:21.187Z,21.98
2022-09-25T04:24:47.676Z,21.97
2022-09-25T04:27:14.113Z,21.95
2022-09-25T04:29:40.510Z,21.96
2022-09-25T04:32:06.920Z,21.95
2022-09-25T04:34:33.212Z,21.94
2022-09-25T04:36:59.618Z,21.95
2022-09-25T04:39:25.905Z,21.93
2022-09-25T04:41:52.174Z,21.92
2022-09-25T04:44:18.456Z,21.91
2022-09-25T04:46:44.847Z,21.91
2022-09-25T04:49:11.139Z,21.89
2022-09-25T04:51:37.566Z,21.88
2022-09-25T04:54:04.098Z,21.89
2022-09-25T04:56:30.550Z,21.88
2022-09-25T04:58:56.850Z,21.88
2022-09-25T05:01:23.418Z,21.86
2022-09-25T05:03:50.701Z,21.86
2022-09-25T05:06:17.255Z,21.84
2022-09-25T05:08:43.890Z,21.86
2022-09-25T05:11:10.221Z,21.84
2022-09-25T05:13:36.498Z,21.84
2022-09-25T05:16:02.843Z,21.83
2022-09-25T05:18:29.201Z,21.81
2022-09-25T05:20:55.472Z,21.81
2022-09-25T05:23:21.969Z,21.81
2022-09-25T05:25:48.543Z,21.79
2022-09-25T05:28:14.931Z,21.79
2022-09-25T05:30:41.675Z,21.79
2022-09-25T05:33:09.158Z,21.78
2022-09-25T05:35:36.882Z,21.79
2022-09-25T05:38:03.242Z,21.77
2022-09-25T05:40:29.699Z,21.77
2022-09-25T05:42:56.061Z,21.76
2022-09-25T05:45:22.391Z,21.76
2022-09-25T05:47:48.798Z,21.76
2022-09-25T05:50:15.514Z,21.75
2022-09-25T05:52:41.864Z,21.74
2022-09-25T05:55:08.303Z,21.74
2022-09-25T05:57:36.911Z,21.73
2022-09-25T06:00:03.262Z,21.71
2022-09-25T06:02:29.907Z,21.70
2022-09-25T06:04:56.317Z,21.69
2022-09-25T06:07:22.665Z,21.67
2022-09-25T06:09:48.991Z,21.66
2022-09-25T06:12:15.270Z,21.64
2022-09-25T06:14:41.633Z,21.63
2022-09-25T06:17:07.893Z,21.62
2022-09-25T06:19:34.246Z,21.62
2022-09-25T06:22:00.556Z,21.59
2022-09-25T06:24:27.084Z,21.59
2022-09-25T06:26:53.342Z,21.58
2022-09-25T06:29:20.080Z,21.57
2022-09-25T06:31:46.483Z,21.56
2022-09-25T06:34:12.839Z,21.57
2022-09-25T06:36:39.220Z,21.55
2022-09-25T06:39:05.572Z,21.54
2022-09-25T06:41:31.848Z,21.54
2022-09-25T06:43:59.272Z,21.51
2022-09-25T06:46:25.770Z,21.52
2022-09-25T06:48:52.431Z,21.52
2022-09-25T06:51:19.896Z,21.51
2022-09-25T06:53:46.141Z,21.51
2022-09-25T06:56:12.471Z,21.47
2022-09-25T06:58:39.107Z,21.48
2022-09-25T07:01:09.731Z,21.48
2022-09-25T07:03:36.131Z,21.61
2022-09-25T07:06:02.425Z,21.48
2022-09-25T07:08:28.759Z,21.45
2022-09-25T07:10:55.010Z,21.43
2022-09-25T07:13:21.366Z,21.43
2022-09-25T07:15:47.735Z,21.46
2022-09-25T07:18:14.114Z,21.49
2022-09-25T07:20:40.806Z,21.48
2022-09-25T07:23:07.132Z,21.49
2022-09-25T07:25:33.465Z,21.50
2022-09-25T07:28:00.714Z,21.50
2022-09-25T07:30:27.050Z,21.50
2022-09-25T07:32:59.213Z,21.51
2022-09-25T07:35:28.480Z,21.51
2022-09-25T07:37:54.814Z,21.51
2022-09-25T07:40:22.118Z,21.53
2022-09-25T07:42:48.568Z,21.53
2022-09-25T07:45:14.820Z,21.51
2022-09-25T07:47:41.357Z,21.52
2022-09-25T07:50:10.887Z,21.52
2022-09-25T07:52:40.069Z,21.52
2022-09-25T07:55:06.774Z,21.51
2022-09-25T07:57:33.082Z,21.51
2022-09-25T07:59:59.429Z,21.53
2022-09-25T08:02:25.787Z,21.54
2022-09-25T08:04:52.334Z,21.53
2022-09-25T08:07:18.573Z,21.53
2022-09-25T08:09:44.866Z,21.53
2022-09-25T08:12:11.356Z,21.52
2022-09-25T08:14:37.635Z,21.54
2022-09-25T08:17:03.899Z,21.54
2022-09-25T08:19:30.716Z,21.56
2022-09-25T08:21:57.042Z,21.55
2022-09-25T08:24:23.576Z,21.57
2022-09-25T08:26:49.890Z,21.57
2022-09-25T08:29:16.157Z,21.58
2022-09-25T08:31:42.433Z,21.56
2022-09-25T08:34:35.902Z,21.55
2022-09-25T08:36:55.018Z,21.57
2022-09-25T08:39:21.406Z,21.55
2022-09-25T08:44:23.042Z,21.55
2022-09-25T08:46:49.504Z,21.56
2022-09-25T08:49:15.787Z,21.54
2022-09-25T08:51:42.342Z,21.53
2022-09-25T08:54:09.339Z,21.54
2022-09-25T08:56:35.770Z,21.54
2022-09-25T08:59:02.150Z,21.52
2022-09-25T09:01:28.578Z,21.52
2022-09-25T09:03:55.619Z,21.53
2022-09-25T09:06:22.184Z,21.53
2022-09-25T09:08:48.481Z,21.54
2022-09-25T09:11:14.820Z,21.56
2022-09-25T09:13:41.296Z,21.55
2022-09-25T09:16:07.667Z,21.56
2022-09-25T09:18:33.973Z,21.57
2022-09-25T09:21:00.295Z,21.56
2022-09-25T09:23:26.776Z,21.57
2022-09-25T09:25:53.242Z,21.57
2022-09-25T09:28:19.588Z,21.56
2022-09-25T09:30:45.986Z,21.58
2022-09-25T09:33:12.631Z,21.58
2022-09-25T09:35:39.145Z,21.60
2022-09-25T09:38:05.613Z,21.59
2022-09-25T09:40:32.195Z,21.58
2022-09-25T09:42:58.654Z,21.58
2022-09-25T09:45:25.209Z,21.58
2022-09-25T09:47:51.697Z,21.58
2022-09-25T09:50:18.523Z,21.58
2022-09-25T09:52:44.871Z,21.59
2022-09-25T09:55:11.440Z,21.60
2022-09-25T09:57:37.803Z,21.59
2022-09-25T10:00:05.529Z,21.57
2022-09-25T10:02:32.258Z,21.57
2022-09-25T10:04:58.666Z,21.58
2022-09-25T10:07:24.963Z,21.57
2022-09-25T10:09:51.237Z,21.56
2022-09-25T10:12:17.597Z,21.57
2022-09-25T10:14:43.841Z,21.56
2022-09-25T10:17:10.343Z,21.55
2022-09-25T10:19:36.687Z,21.56
2022-09-25T10:22:03.120Z,21.54
2022-09-25T10:24:29.355Z,21.53
2022-09-25T10:26:55.859Z,21.53
2022-09-25T10:29:22.279Z,21.54
2022-09-25T10:31:48.806Z,21.55
2022-09-25T10:34:16.009Z,21.54
2022-09-25T10:36:42.464Z,21.55
2022-09-25T10:39:42.390Z,21.55
2022-09-25T10:41:57.271Z,21.57
2022-09-25T10:44:23.676Z,21.57
2022-09-25T10:46:50.138Z,21.57
2022-09-25T10:49:16.417Z,21.56
2022-09-25T10:51:42.719Z,21.59
2022-09-25T10:54:08.999Z,21.58
2022-09-25T10:56:35.271Z,21.58
2022-09-25T10:59:01.713Z,21.57
2022-09-25T11:01:29.152Z,21.57
2022-09-25T11:03:55.893Z,21.57
2022-09-25T11:06:22.207Z,21.56
2022-09-25T11:08:48.584Z,21.54
2022-09-25T11:11:14.920Z,21.53
2022-09-25T11:13:41.265Z,21.53
2022-09-25T11:16:07.827Z,21.51
2022-09-25T11:18:34.175Z,21.48
2022-09-25T11:21:00.449Z,21.44
2022-09-25T11:23:27.237Z,21.41
2022-09-25T11:25:53.800Z,21.39
2022-09-25T11:28:20.360Z,21.39
2022-09-25T11:30:46.725Z,21.34
2022-09-25T11:33:13.063Z,21.31
2022-09-25T11:35:39.429Z,21.36
2022-09-25T11:38:06.331Z,21.33
2022-09-25T11:40:32.990Z,21.28
2022-09-25T11:42:59.407Z,21.28
2022-09-25T11:45:26.056Z,21.28
2022-09-25T11:47:52.411Z,21.25
2022-09-25T11:50:18.886Z,21.25
2022-09-25T11:52:45.578Z,21.26
2022-09-25T11:55:11.858Z,21.29
2022-09-25T11:57:38.195Z,21.27
2022-09-25T12:00:04.510Z,21.27
2022-09-25T12:02:30.851Z,21.31
2022-09-25T12:04:57.361Z,21.30
2022-09-25T12:07:23.766Z,21.30
2022-09-25T12:09:51.583Z,21.33
2022-09-25T12:12:18.183Z,21.33
2022-09-25T12:14:44.813Z,21.35
2022-09-25T12:17:11.218Z,21.36
2022-09-25T12:19:38.251Z,21.35
2022-09-25T12:22:04.536Z,21.33
2022-09-25T12:24:33.108Z,21.35
2022-09-25T12:26:59.586Z,21.36
2022-09-25T12:29:25.948Z,21.34
2022-09-25T12:31:52.198Z,21.36
2022-09-25T12:34:18.943Z,21.35
2022-09-25T12:36:45.337Z,21.37
2022-09-25T12:39:11.590Z,21.36
2022-09-25T12:41:37.865Z,21.34
2022-09-25T12:44:04.234Z,21.33
2022-09-25T12:46:30.513Z,21.34
2022-09-25T12:48:56.807Z,21.34
2022-09-25T12:51:23.471Z,21.36
2022-09-25T12:53:49.889Z,21.37
2022-09-25T12:56:16.364Z,21.38
2022-09-25T12:58:42.715Z,21.38
2022-09-25T13:01:08.989Z,21.37
2022-09-25T13:03:35.485Z,21.37
2022-09-25T13:06:02.269Z,21.36
2022-09-25T13:08:29.522Z,21.35
2022-09-25T13:10:55.886Z,21.36
2022-09-25T13:13:22.266Z,21.35
2022-09-25T13:15:48.878Z,21.35
2022-09-25T13:18:15.207Z,21.35
2022-09-25T13:20:41.637Z,21.35
2022-09-25T13:23:07.940Z,21.35
2022-09-25T13:25:34.522Z,21.36
2022-09-25T13:28:00.998Z,21.36
2022-09-25T13:30:27.267Z,21.36
2022-09-25T13:32:53.696Z,21.34
2022-09-25T13:35:20.184Z,21.35
2022-09-25T13:37:46.580Z,21.33
2022-09-25T13:40:13.476Z,21.33
2022-09-25T13:42:39.930Z,21.32
2022-09-25T13:45:06.274Z,21.32
2022-09-25T13:47:32.830Z,21.32
2022-09-25T13:49:59.283Z,21.31
2022-09-25T13:52:25.957Z,21.30
2022-09-25T13:54:52.311Z,21.29
2022-09-25T13:57:18.636Z,21.31
2022-09-25T13:59:44.998Z,21.30
2022-09-25T14:02:11.629Z,21.27
2022-09-25T14:04:38.338Z,21.29
2022-09-25T14:07:04.785Z,21.28
2022-09-25T14:09:31.115Z,21.28
2022-09-25T14:11:57.579Z,21.27
2022-09-25T14:14:23.987Z,21.26
2022-09-25T14:16:50.241Z,21.26
2022-09-25T14:19:16.962Z,21.24
2022-09-25T14:21:44.040Z,21.25
2022-09-25T14:24:10.553Z,21.24
2022-09-25T14:26:37.117Z,21.24
2022-09-25T14:29:03.459Z,21.24
2022-09-25T14:31:30.058Z,21.24
2022-09-25T14:33:56.492Z,21.23
2022-09-25T14:36:22.779Z,21.23
2022-09-25T14:38:49.119Z,21.21
2022-09-25T14:41:15.431Z,21.21
2022-09-25T14:43:41.961Z,21.21
2022-09-25T14:46:10.372Z,21.17
2022-09-25T14:48:39.134Z,21.19
2022-09-25T14:51:05.529Z,21.18
2022-09-25T14:53:32.095Z,21.16
2022-09-25T14:55:58.538Z,21.16
2022-09-25T14:58:24.849Z,21.17
2022-09-25T15:00:51.174Z,21.17
2022-09-25T15:03:18.973Z,21.14
2022-09-25T15:05:45.257Z,21.14
2022-09-25T15:08:11.668Z,21.13
2022-09-25T15:10:37.909Z,21.12
2022-09-25T15:13:04.265Z,21.12
2022-09-25T15:15:30.527Z,21.11
2022-09-25T15:17:56.767Z,21.12
2022-09-25T15:20:23.274Z,21.10
2022-09-25T15:22:49.605Z,21.09
2022-09-25T15:25:15.885Z,21.08
2022-09-25T15:27:42.162Z,21.08
2022-09-25T15:30:08.509Z,21.08
2022-09-25T15:32:34.822Z,21.07
2022-09-25T15:35:01.567Z,21.06
2022-09-25T15:37:28.130Z,21.07
2022-09-25T15:39:54.632Z,21.05
2022-09-25T15:42:20.990Z,21.05
2022-09-25T15:44:47.696Z,21.04
2022-09-25T15:47:14.084Z,21.04
2022-09-25T15:49:41.323Z,21.05
2022-09-25T15:52:07.680Z,21.04
2022-09-25T15:54:34.226Z,21.03
2022-09-25T15:57:01.883Z,21.01
2022-09-25T15:59:29.102Z,21.01
2022-09-25T16:01:58.905Z,21.02
2022-09-25T16:04:26.482Z,21.02
2022-09-25T16:06:53.928Z,21.02
2022-09-25T16:09:22.439Z,21.02
2022-09-25T16:11:51.545Z,21.03
2022-09-25T16:14:17.955Z,21.02
2022-09-25T16:16:44.470Z,21.03
2022-09-25T16:19:10.967Z,21.01
2022-09-25T16:21:37.425Z,21.01
2022-09-25T16:24:04.510Z,21.01
2022-09-25T16:26:31.084Z,21.00
2022-09-25T16:28:57.472Z,21.02
2022-09-25T16:31:24.095Z,21.02
2022-09-25T16:33:50.479Z,21.01
2022-09-25T16:36:18.014Z,21.01
2022-09-25T16:38:44.699Z,21.00
2022-09-25T16:41:10.971Z,21.00
2022-09-25T16:43:37.360Z,20.99
2022-09-25T16:46:03.698Z,21.02
2022-09-25T16:48:30.048Z,20.99
2022-09-25T16:50:56.349Z,20.99
2022-09-25T16:53:22.682Z,20.99
2022-09-25T16:55:48.960Z,20.98
2022-09-25T16:58:15.238Z,20.99
2022-09-25T17:00:41.653Z,20.99
2022-09-25T17:03:07.979Z,20.99
2022-09-25T17:05:34.324Z,20.98
2022-09-25T17:08:01.022Z,20.99
2022-09-25T17:10:27.474Z,20.99
2022-09-25T17:12:54.194Z,20.98
2022-09-25T17:15:20.638Z,20.97
2022-09-25T17:17:47.055Z,20.96
2022-09-25T17:20:13.286Z,20.95
2022-09-25T17:22:39.603Z,20.97
2022-09-25T17:25:06.046Z,20.96
2022-09-25T17:27:32.539Z,20.95
2022-09-25T17:29:58.933Z,20.96
2022-09-25T17:32:25.648Z,20.93
2022-09-25T17:34:53.274Z,20.95
2022-09-25T17:37:19.730Z,20.94
2022-09-25T17:39:46.349Z,20.93
2022-09-25T17:42:12.705Z,20.94
2022-09-25T17:44:38.997Z,20.95
2022-09-25T17:47:05.307Z,20.95
2022-09-25T17:49:31.591Z,20.95
2022-09-25T17:51:57.883Z,20.94
2022-09-25T17:54:24.175Z,20.93
2022-09-25T17:56:50.691Z,20.92
2022-09-25T17:59:17.201Z,20.92
2022-09-25T18:01:43.921Z,20.91
2022-09-25T18:04:10.524Z,20.92
2022-09-25T18:06:36.787Z,20.91
2022-09-25T18:09:03.191Z,20.92
2022-09-25T18:11:29.465Z,20.91
2022-09-25T18:13:55.948Z,20.89
2022-09-25T18:16:22.345Z,20.91
2022-09-25T18:18:48.649Z,20.91
2022-09-25T18:21:15.073Z,20.91
2022-09-25T18:23:41.418Z,20.90
2022-09-25T18:26:07.891Z,20.90
2022-09-25T18:28:34.291Z,20.88
2022-09-25T18:31:00.831Z,20.89
2022-09-25T18:33:27.173Z,20.88
2022-09-25T18:35:53.544Z,20.89
2022-09-25T18:38:19.810Z,20.89
2022-09-25T18:40:46.200Z,20.88
2022-09-25T18:43:12.735Z,20.88
2022-09-25T18:45:38.998Z,20.88
2022-09-25T18:48:05.277Z,20.87
2022-09-25T18:50:31.610Z,20.87
2022-09-25T18:52:57.992Z,20.86
2022-09-25T18:55:24.266Z,20.88
2022-09-25T18:57:50.659Z,20.87
2022-09-25T19:00:17.003Z,20.87
2022-09-25T19:02:43.756Z,20.86
2022-09-25T19:05:11.107Z,20.85
2022-09-25T19:07:37.678Z,20.86
2022-09-25T19:10:04.139Z,20.84
2022-09-25T19:12:30.482Z,20.85
2022-09-25T19:14:56.873Z,20.85
2022-09-25T19:17:23.448Z,20.84
2022-09-25T19:19:49.689Z,20.84
2022-09-25T19:22:16.260Z,20.83
2022-09-25T19:24:42.791Z,20.84
2022-09-25T19:27:09.143Z,20.84
2022-09-25T19:29:35.633Z,20.83
2022-09-25T19:32:03.076Z,20.83
2022-09-25T19:34:29.301Z,20.83
2022-09-25T19:36:55.821Z,20.83
2022-09-25T19:39:22.249Z,20.82
2022-09-25T19:41:48.583Z,20.82
2022-09-25T19:44:14.885Z,20.82
2022-09-25T19:46:41.539Z,20.81
2022-09-25T19:49:08.015Z,20.81
2022-09-25T19:51:34.617Z,20.82
2022-09-25T19:54:00.873Z,20.80
2022-09-25T19:56:27.326Z,20.80
2022-09-25T19:58:53.646Z,20.81
2022-09-25T20:01:19.972Z,20.78
2022-09-25T20:03:46.306Z,20.79
2022-09-25T20:06:12.803Z,20.79
2022-09-25T20:08:39.200Z,20.79
2022-09-25T20:11:05.606Z,20.79
2022-09-25T20:13:31.893Z,20.79
2022-09-25T20:15:58.263Z,20.78
2022-09-25T20:18:24.805Z,20.78
2022-09-25T20:20:51.086Z,20.76
2022-09-25T20:23:17.532Z,20.76
2022-09-25T20:25:43.949Z,20.76
2022-09-25T20:28:10.293Z,20.75
2022-09-25T20:30:36.572Z,20.75
2022-09-25T20:33:02.949Z,20.75
2022-09-25T20:35:29.279Z,20.75
2022-09-25T20:37:55.898Z,20.75
2022-09-25T20:40:22.413Z,20.75
2022-09-25T20:42:48.738Z,20.75
2022-09-25T20:45:15.094Z,20.75
2022-09-25T20:47:46.015Z,20.74
2022-09-25T20:50:12.746Z,20.72
2022-09-25T20:52:39.449Z,20.73
2022-09-25T20:55:06.032Z,20.73
2022-09-25T20:57:32.394Z,20.71
2022-09-25T20:59:58.799Z,20.71
2022-09-25T21:02:25.393Z,20.73
2022-09-25T21:04:51.767Z,20.72
2022-09-25T21:07:18.083Z,20.71
2022-09-25T21:09:44.430Z,20.71
2022-09-25T21:12:10.705Z,20.71
2022-09-25T21:14:37.068Z,20.71
2022-09-25T21:17:03.499Z,20.70
2022-09-25T21:19:30.034Z,20.69
2022-09-25T21:21:56.485Z,20.70
2022-09-25T21:24:22.824Z,20.69
2022-09-25T21:26:49.111Z,20.68
2022-09-25T21:29:15.458Z,20.69
2022-09-25T21:31:46.596Z,20.68
2022-09-25T21:34:15.611Z,20.67
2022-09-25T21:36:42.027Z,20.67
2022-09-25T21:39:08.353Z,20.67
2022-09-25T21:41:34.710Z,20.67
2022-09-25T21:44:01.229Z,20.66
2022-09-25T21:46:27.570Z,20.66
2022-09-25T21:48:54.245Z,20.66
2022-09-25T21:51:20.736Z,20.65
2022-09-25T21:53:47.014Z,20.65
2022-09-25T21:56:13.281Z,20.65
2022-09-25T21:58:39.718Z,20.64
2022-09-25T22:01:06.137Z,20.62
2022-09-25T22:03:32.755Z,20.63
2022-09-25T22:05:59.307Z,20.61
2022-09-25T22:08:27.279Z,20.60
2022-09-25T22:10:53.636Z,20.60
2022-09-25T22:13:19.914Z,20.58
2022-09-25T22:15:46.266Z,20.58
2022-09-25T22:18:12.679Z,20.58
2022-09-25T22:20:38.945Z,20.59
2022-09-25T22:23:05.310Z,20.59
2022-09-25T22:25:31.657Z,20.58
2022-09-25T22:27:58.489Z,20.58
2022-09-25T22:30:24.841Z,20.58
2022-09-25T22:32:51.140Z,20.57
2022-09-25T22:35:17.427Z,20.58
2022-09-25T22:37:43.952Z,20.57
2022-09-25T22:40:10.368Z,20.57
2022-09-25T22:42:36.761Z,20.56
2022-09-25T22:45:03.293Z,20.56
2022-09-25T22:47:29.781Z,20.55
2022-09-25T22:49:56.054Z,20.57
2022-09-25T22:52:22.386Z,20.55
2022-09-25T22:54:48.832Z,20.55
2022-09-25T22:57:15.113Z,20.55
2022-09-25T22:59:41.417Z,20.55
2022-09-25T23:02:07.897Z,20.55
2022-09-25T23:04:34.957Z,20.56
2022-09-25T23:07:01.288Z,20.55
2022-09-25T23:09:27.579Z,20.55
2022-09-25T23:11:53.876Z,20.55
2022-09-25T23:14:20.264Z,20.54
2022-09-25T23:16:46.645Z,20.54
2022-09-25T23:19:13.119Z,20.54
2022-09-25T23:21:39.710Z,20.53
2022-09-25T23:24:06.016Z,20.54
2022-09-25T23:26:32.372Z,20.53
2022-09-25T23:28:58.663Z,20.52
2022-09-25T23:31:24.962Z,20.53
2022-09-25T23:33:51.302Z,20.52
2022-09-25T23:36:17.671Z,20.53
2022-09-25T23:38:44.018Z,20.52
2022-09-25T23:41:10.282Z,20.53
2022-09-25T23:43:36.619Z,20.52
2022-09-25T23:46:03.224Z,20.53
2022-09-25T23:48:29.513Z,20.51
2022-09-25T23:50:55.760Z,20.52
2022-09-25T23:53:22.197Z,20.51
2022-09-25T23:55:48.477Z,20.51
2022-09-25T23:58:14.781Z,20.51
